Strona główna
Zdjęcia satelitarne 15-dni prognozyKlimatMeteorologia morska Cyklony Błyskawica LotniskoFAQ Gazetka O
Pogoda : Europa Afryka Ameryka Północna Ameryka Południowa Azja Australia-Oceania Inny
Języki Kontakt

Doncaster Sheffield, Anglia

Robin Hood

Szerokość geograficzna: 53-29N, Długość geograficzna: 001-00W, wysokość: 17 m


METAR: EGCN 211850Z 19010KT 9999 BKN022 12/09 Q1015
TAF: EGCN 211701Z 2118/2203 22020KT 9999 FEW025 PROB30 TEMPO 2118/2203 23025G35KT

czas: 19:20 (19:20 UTC)

Aktualna obserwacja pogody

Raport powstał 30 minut temu, godzina 18:50 UTC
Wiatr 10 kt od południe
Temperatura 12°C
Wilgotność 82%
Ciśnienie 1015 hPa
Widzialność 10 km lub więcej
Przerywane chmury na wysokości 2200 ft

Jednostka miary

Prognoza

Raport powstał 2 godziny i 19 minut temu, godzina 17:01 UTC
Prognoza ważna od 21 godzina 18 UTC do 22 godzina 03 UTC
Wiatr 20 kt od południowy zachód
Widzialność 10 km lub więcej
Mało chmury na wysokości 2500 ft
Prawdopodobieństwo 30% :
Przejściowo
od 21 godzina 18 UTC do 22 godzina 03 UTC
Wiatr 25 kt od południowy zachód w porywach dochodzący do 35 kt
Informacje na tej stronie internetowej podlegają klauzuli o wyłączeniu odpowiedzialności
Pogoda : Europa Afryka Ameryka Północna Ameryka Południowa Azja Australia-Oceania Inny
Zdjęcia satelitarne 15-dni prognozyKlimatMeteorologia morska Cyklony Błyskawica LotniskoFAQ Języki Kontakt Gazetka O